SV1LH-1 Melissia GR current weather conditions

sailwx.info

Wind from 292 at 2 knots gusting 4

Air temperature 16.1° C
Dewpoint 9.3° C

Last reported at 2014-Dec-20 12:50 UTC.
Time now 2014-Dec-20 13:41 UTC

Location: N 38°03' E 023°51'.
View on Google Maps.

See reports from other nearby stations

  
Tides and Currents Weather Stations Pressure Air Temp Water Temp Dewpoint Dewpoint Depression Visibility Wind Speed Wind Dir Waves Ship Positions
date/time (UTC)wind fromknots sea level pressurealtimeterstation pressurevisibilityair tempwater tempwave heightnotes
2014-Dec-20 12:50 292 2 gusting 4 16.1
2014-Dec-20 12:45 15.6
2014-Dec-20 12:40 270 2 gusting 4 15.6
2014-Dec-20 12:35 247 1 gusting 3 15.0
2014-Dec-20 12:30 180 3 gusting 5 15.6
2014-Dec-20 12:25 270 2 gusting 5 16.1
2014-Dec-20 12:20 225 1 gusting 2 15.6
2014-Dec-20 12:15 315 3 gusting 4 16.1
2014-Dec-20 12:10 292 6 gusting 7 15.0
2014-Dec-20 12:05 292 2 gusting 3 14.4
2014-Dec-20 12:00 315 3 gusting 5 14.4
2014-Dec-20 11:55 292 3 gusting 6 15.6
2014-Dec-20 11:50 270 3 gusting 4 16.1
2014-Dec-20 11:45 315 2 gusting 3 16.7
2014-Dec-20 11:40 270 2 gusting 4 17.2
2014-Dec-20 11:35 270 4 gusting 6 16.7
2014-Dec-20 11:30 247 4 gusting 6 16.1
2014-Dec-20 11:25 270 3 gusting 3 15.6
2014-Dec-20 11:20 292 2 gusting 5 15.6
2014-Dec-20 11:15 315 4 gusting 6 16.1
2014-Dec-20 11:10 270 2 gusting 4 17.2
2014-Dec-20 11:05 247 6 gusting 8 17.2
2014-Dec-20 11:00 180 2 gusting 5 17.2
2014-Dec-20 10:55 270 3 gusting 6 16.7
2014-Dec-20 10:50 247 4 gusting 7 16.7
2014-Dec-20 10:45 337 3 gusting 5 16.7
2014-Dec-20 10:40 270 6 gusting 9 16.7
2014-Dec-20 10:35 292 6 gusting 10 17.2
2014-Dec-20 10:30 292 4 gusting 6 17.2
2014-Dec-20 10:25 270 3 gusting 4 17.2
2014-Dec-20 10:20 270 4 gusting 7 17.2
2014-Dec-20 10:15 180 3 gusting 5 17.2
2014-Dec-20 10:10 270 1 gusting 5 16.7
2014-Dec-20 10:05 292 7 gusting 9 16.7
2014-Dec-20 10:00 270 6 gusting 8 17.2
2014-Dec-20 09:55 315 4 gusting 6 17.2
2014-Dec-20 09:50 180 1 gusting 3 17.2
2014-Dec-20 09:45 202 1 gusting 2 17.2
2014-Dec-20 09:40 292 2 gusting 3 17.2
2014-Dec-20 09:35 270 3 gusting 5 17.2
2014-Dec-20 09:30 247 4 gusting 6 17.8
2014-Dec-20 09:25 135 3 gusting 4 17.8
2014-Dec-20 09:20 292 2 gusting 4 17.8
2014-Dec-20 09:15 247 1 gusting 3 18.3
2014-Dec-20 09:10 247 0 gusting 1 17.8
2014-Dec-20 09:05 225 1 gusting 2 17.8
2014-Dec-20 09:00 247 0 gusting 1 17.8
2014-Dec-20 08:55 247 2 gusting 3 17.8
2014-Dec-20 08:50 225 2 gusting 2 17.2
2014-Dec-20 08:45 247 1 gusting 2 17.2
2014-Dec-20 08:40 247 1 gusting 3 17.2
2014-Dec-20 08:35 270 1 gusting 3 16.7
2014-Dec-20 08:30 225 16.1
2014-Dec-20 08:25 247 1 gusting 3 16.1
2014-Dec-20 08:20 315 0 gusting 3 15.6
2014-Dec-20 08:15 202 2 gusting 3 15.6
2014-Dec-20 08:10 315 15.0
2014-Dec-20 08:05 315 1 gusting 2 15.0
2014-Dec-20 08:00 292 2 gusting 3 14.4
2014-Dec-20 07:55 292 1 gusting 2 14.4
2014-Dec-20 07:49 337 0 gusting 1 13.9
2014-Dec-20 07:45 315 0 gusting 1 13.9
2014-Dec-20 07:40 292 1 gusting 1 13.9
2014-Dec-20 07:35 270 1 gusting 2 13.9
2014-Dec-20 07:30 315 0 gusting 2 13.9
2014-Dec-20 07:25 292 0 gusting 0 13.3
2014-Dec-20 07:20 292 0 gusting 0 13.3
2014-Dec-20 07:15 247 12.8
2014-Dec-20 07:10 315 0 gusting 1 12.2
2014-Dec-20 07:05 292 1 gusting 1 11.7
2014-Dec-20 07:00 11.1
2014-Dec-20 06:55 045 10.6
2014-Dec-20 06:50 022 10.0
2014-Dec-20 06:45 022 1 gusting 1 9.4
2014-Dec-20 06:40 022 0 gusting 0 8.9
2014-Dec-20 06:35 022 8.3
2014-Dec-20 06:30 7.8
2014-Dec-20 06:25 045 7.2
2014-Dec-20 06:20 090 6.1
2014-Dec-20 06:15 090 5.6
2014-Dec-20 06:10 045 5.6
2014-Dec-20 06:05 5.6
2014-Dec-20 06:00 022 5.6
2014-Dec-20 05:55 022 5.6
2014-Dec-20 05:50 045 5.6
2014-Dec-20 05:45 090 5.0
2014-Dec-20 05:40 090 5.0
2014-Dec-20 05:35 090 0 gusting 1 5.0
2014-Dec-20 05:30 067 5.0
2014-Dec-20 05:25 045 5.0
2014-Dec-20 05:20 067 0 gusting 0 5.0
2014-Dec-20 05:15 090 5.0
2014-Dec-20 05:10 090 5.0
2014-Dec-20 05:05 090 5.0
2014-Dec-20 05:00 090 5.0
2014-Dec-20 04:55 067 5.0
2014-Dec-20 04:50 090 5.0
2014-Dec-20 04:45 090 5.0
2014-Dec-20 04:40 067 5.0
2014-Dec-20 04:35 090 5.0
2014-Dec-20 04:30 090 2 gusting 3 5.0
2014-Dec-20 04:25 022 5.0
2014-Dec-20 04:20 067 0 gusting 1 5.0
2014-Dec-20 04:15 067 5.0
2014-Dec-20 04:10 090 0 gusting 1 5.0
2014-Dec-20 04:05 090 0 gusting 1 5.0
2014-Dec-20 04:00 090 5.0
2014-Dec-20 03:55 090 1 gusting 1 5.0
2014-Dec-20 03:50 090 0 gusting 1 5.0
2014-Dec-20 03:45 090 0 gusting 0 5.0
2014-Dec-20 03:40 067 5.0
2014-Dec-20 03:35 090 5.0
2014-Dec-20 03:30 090 5.0
2014-Dec-20 03:25 090 5.0
2014-Dec-20 03:20 090 5.0
2014-Dec-20 03:15 090 5.0
2014-Dec-20 03:10 067 5.0
2014-Dec-20 03:05 045 5.0
2014-Dec-20 03:00 067 5.0
2014-Dec-20 02:55 090 5.0
2014-Dec-20 02:50 090 5.0
2014-Dec-20 02:45 090 5.0
2014-Dec-20 02:40 067 5.0
2014-Dec-20 02:35 067 5.0
2014-Dec-20 02:30 067 5.0
2014-Dec-20 02:25 067 5.6
2014-Dec-20 02:20 067 5.6
2014-Dec-20 02:15 067 5.6
2014-Dec-20 02:10 090 5.6
2014-Dec-20 02:05 045 5.6
2014-Dec-20 02:00 045 5.6
2014-Dec-20 01:55 022 5.6
2014-Dec-20 01:50 045 0 gusting 1 5.6
2014-Dec-20 01:45 090 0 gusting 0 5.6
2014-Dec-20 01:40 090 0 gusting 1 5.6
2014-Dec-20 01:35 090 0 gusting 0 6.1
2014-Dec-20 01:30 090 0 gusting 0 6.1
2014-Dec-20 01:25 6.1
2014-Dec-20 01:20 090 0 gusting 0 6.1
2014-Dec-20 01:15 067 0 gusting 1 6.1
2014-Dec-20 01:10 090 0 gusting 0 6.1
2014-Dec-20 01:05 090 0 gusting 1 6.1
2014-Dec-20 01:00 067 0 gusting 1 6.1
2014-Dec-20 00:55 067 0 gusting 1 6.1
2014-Dec-20 00:50 067 5.6
2014-Dec-20 00:45 090 0 gusting 1 5.6
2014-Dec-20 00:40 090 0 gusting 1 5.6
2014-Dec-20 00:35 067 0 gusting 0 5.6
2014-Dec-20 00:30 090 0 gusting 1 6.1
2014-Dec-20 00:25 090 0 gusting 1 5.6
2014-Dec-20 00:20 090 5.6
2014-Dec-20 00:15 067 5.6
2014-Dec-20 00:10 067 5.6
2014-Dec-20 00:05 090 0 gusting 1 5.6
2014-Dec-20 00:00 090 5.6
2014-Dec-19 23:55 090 5.6
2014-Dec-19 23:50 090 0 gusting 1 5.6
2014-Dec-19 23:45 090 5.6
2014-Dec-19 23:40 067 5.6
2014-Dec-19 23:35 067 5.6
2014-Dec-19 23:30 090 5.6
2014-Dec-19 23:25 067 5.0
2014-Dec-19 23:20 090 5.6
2014-Dec-19 23:15 067 5.6
2014-Dec-19 23:10 090 5.6
2014-Dec-19 23:05 022 5.0
2014-Dec-19 23:00 090 5.6
2014-Dec-19 22:55 090 5.6
2014-Dec-19 22:50 090 5.6
2014-Dec-19 22:45 045 5.6
2014-Dec-19 22:40 067 5.6
2014-Dec-19 22:35 090 5.6
2014-Dec-19 22:30 090 5.6
2014-Dec-19 22:25 090 5.6
2014-Dec-19 22:20 067 5.6
2014-Dec-19 22:15 067 5.6
2014-Dec-19 22:10 090 5.6
2014-Dec-19 22:05 090 6.1
2014-Dec-19 22:00 067 6.1
2014-Dec-19 21:55 090 6.1
2014-Dec-19 21:50 045 1 gusting 1 6.1
2014-Dec-19 21:45 090 0 gusting 1 6.1
2014-Dec-19 21:40 090 6.1
2014-Dec-19 21:34 067 6.1
2014-Dec-19 21:30 090 6.1
2014-Dec-19 21:25 067 0 gusting 0 6.1
2014-Dec-19 21:20 067 6.1
2014-Dec-19 21:15 090 6.1
2014-Dec-19 21:10 067 6.1
2014-Dec-19 21:05 067 0 gusting 1 6.1
2014-Dec-19 21:00 045 0 gusting 1 6.1
2014-Dec-19 20:55 090 1 gusting 3 6.1
2014-Dec-19 20:50 090 0 gusting 1 6.1
2014-Dec-19 20:45 067 0 gusting 0 6.1
2014-Dec-19 20:40 090 6.1
2014-Dec-19 20:35 090 6.1
2014-Dec-19 20:30 090 0 gusting 1 6.1
2014-Dec-19 20:25 157 0 gusting 0 6.1
2014-Dec-19 20:20 067 0 gusting 1 6.1
2014-Dec-19 20:15 090 6.1
2014-Dec-19 20:10 067 0 gusting 0 6.1
2014-Dec-19 20:05 090 1 gusting 1 6.1
2014-Dec-19 20:00 067 0 gusting 1 6.1
2014-Dec-19 19:55 090 0 gusting 1 6.1
2014-Dec-19 19:50 090 0 gusting 1 6.1
2014-Dec-19 19:45 090 0 gusting 1 6.1
2014-Dec-19 19:40 090 0 gusting 1 6.1
2014-Dec-19 19:34 090 0 gusting 1 6.1
2014-Dec-19 19:30 090 0 gusting 1 6.1
2014-Dec-19 19:25 090 0 gusting 1 6.1
2014-Dec-19 19:20 090 0 gusting 1 6.1
2014-Dec-19 19:15 112 0 gusting 1 6.1
2014-Dec-19 19:10 112 0 gusting 1 6.1
2014-Dec-19 19:05 112 0 gusting 1 6.1
2014-Dec-19 19:00 090 1 gusting 1 6.1
2014-Dec-19 18:55 090 1 gusting 1 6.1
2014-Dec-19 18:50 090 0 gusting 1 6.1
2014-Dec-19 18:45 090 0 gusting 1 6.1
2014-Dec-19 18:40 067 0 gusting 1 6.1
2014-Dec-19 18:35 090 2 gusting 3 6.1
2014-Dec-19 18:30 090 2 gusting 3 6.1
2014-Dec-19 18:25 090 2 gusting 3 6.1
2014-Dec-19 18:20 090 0 gusting 1 6.1
2014-Dec-19 18:15 112 2 gusting 3 6.1
2014-Dec-19 18:10 090 2 gusting 3 6.7
2014-Dec-19 18:05 090 2 gusting 3 6.7
2014-Dec-19 18:00 067 1 gusting 3 6.7
2014-Dec-19 17:55 090 2 gusting 3 6.7
2014-Dec-19 17:50 090 2 gusting 3 6.7
2014-Dec-19 17:45 112 1 gusting 2 6.7
2014-Dec-19 17:40 090 2 gusting 3 6.7
2014-Dec-19 17:35 090 2 gusting 4 6.7
2014-Dec-19 17:30 090 2 gusting 3 6.7
2014-Dec-19 17:25 112 0 gusting 1 6.7
2014-Dec-19 17:20 090 1 gusting 2 6.7
2014-Dec-19 17:15 067 2 gusting 3 6.7
2014-Dec-19 17:10 112 1 gusting 2 6.7
2014-Dec-19 17:05 090 1 gusting 1 6.7
2014-Dec-19 17:00 090 1 gusting 2 6.7
2014-Dec-19 16:55 090 1 gusting 1 6.7
2014-Dec-19 16:50 090 0 gusting 1 6.7
2014-Dec-19 16:45 067 1 gusting 1 7.2
2014-Dec-19 16:40 112 7.2
2014-Dec-19 16:35 067 1 gusting 1 7.2
2014-Dec-19 16:30 090 2 gusting 4 7.2
2014-Dec-19 16:25 090 1 gusting 1 7.2
2014-Dec-19 16:20 090 1 gusting 2 7.2
2014-Dec-19 16:15 090 0 gusting 1 7.8
2014-Dec-19 16:10 067 1 gusting 2 7.8
2014-Dec-19 16:05 090 1 gusting 1 7.8
2014-Dec-19 16:00 090 1 gusting 2 7.8
2014-Dec-19 15:55 090 1 gusting 2 7.8
2014-Dec-19 15:50 090 1 gusting 2 7.8
2014-Dec-19 15:45 090 0 gusting 0 8.3
2014-Dec-19 15:40 090 0 gusting 1 8.3
2014-Dec-19 15:35 090 0 gusting 1 8.3
2014-Dec-19 15:30 112 0 gusting 1 8.3
2014-Dec-19 15:25 112 8.9
2014-Dec-19 15:20 112 0 gusting 0 8.9
2014-Dec-19 15:15 112 9.4
2014-Dec-19 15:10 090 10.0
2014-Dec-19 15:05 157 10.6
2014-Dec-19 15:00 135 10.6
2014-Dec-19 14:55 112 11.1
2014-Dec-19 14:50 180 11.7
2014-Dec-19 14:45 157 11.7
2014-Dec-19 14:40 180 0 gusting 0 11.7
2014-Dec-19 14:35 180 11.7
2014-Dec-19 14:30 202 11.7
2014-Dec-19 14:25 180 0 gusting 1 11.7
2014-Dec-19 14:20 202 0 gusting 1 11.7
2014-Dec-19 14:15 157 11.7
2014-Dec-19 14:10 180 1 gusting 1 11.7
2014-Dec-19 14:05 180 12.2
2014-Dec-19 14:00 180 2 gusting 3 12.2
2014-Dec-19 13:55 202 1 gusting 3 12.8
2014-Dec-19 13:50 180 0 gusting 2 12.8
2014-Dec-19 13:45 157 1 gusting 2 13.3
2014-Dec-19 13:40 202 1 gusting 2 13.9
2014-Dec-19 13:35 180 1 gusting 2 14.4
2014-Dec-19 13:30 202 2 gusting 3 15.0
2014-Dec-19 13:25 202 2 gusting 4 15.6
2014-Dec-19 13:20 180 1 gusting 2 15.6
2014-Dec-19 13:15 247 3 gusting 5 16.1
2014-Dec-19 13:10 225 3 gusting 4 16.1
2014-Dec-19 13:05 225 4 gusting 6 16.7
2014-Dec-19 13:00 225 2 gusting 4 16.7
2014-Dec-19 12:55 225 2 gusting 3 16.7
2014-Dec-19 12:50 157 4 gusting 5 16.7
2014-Dec-19 12:45 180 4 gusting 5 17.2
2014-Dec-19 12:40 180 4 gusting 5 17.8
2014-Dec-19 12:35 225 2 gusting 4 17.8
2014-Dec-19 12:30 180 2 gusting 3 17.8
2014-Dec-19 12:25 292 1 gusting 3 17.8
2014-Dec-19 12:20 270 3 gusting 5 17.8
2014-Dec-19 12:15 225 0 gusting 1 17.8
2014-Dec-19 12:10 202 1 gusting 5 17.8
2014-Dec-19 12:05 247 3 gusting 4 17.8
2014-Dec-19 12:00 270 0 gusting 3 18.3
2014-Dec-19 11:55 247 1 gusting 2 19.4
2014-Dec-19 11:50 225 2 gusting 4 19.4
2014-Dec-19 11:45 180 2 gusting 4 18.9
2014-Dec-19 11:40 18.9
2014-Dec-19 11:35 225 5 gusting 6 18.9
2014-Dec-19 11:30 180 3 gusting 5 19.4
2014-Dec-19 11:25 202 2 gusting 3 19.4
2014-Dec-19 11:20 202 2 gusting 3 18.9
2014-Dec-19 11:15 022 0 gusting 1 18.9
2014-Dec-19 11:10 292 2 gusting 3 18.9
2014-Dec-19 11:05 202 2 gusting 5 18.9
2014-Dec-19 11:00 270 2 gusting 4 18.9
2014-Dec-19 10:55 270 1 gusting 2 18.3
2014-Dec-19 10:50 270 2 gusting 3 18.3
2014-Dec-19 10:45 247 2 gusting 4 18.9
2014-Dec-19 10:40 292 3 gusting 4 18.9
2014-Dec-19 10:35 247 1 gusting 3 18.9
2014-Dec-19 10:30 292 2 gusting 3 18.9
2014-Dec-19 10:25 270 2 gusting 3 18.3
2014-Dec-19 10:20 270 3 gusting 3 18.3
2014-Dec-19 10:15 225 3 gusting 3 18.3
2014-Dec-19 10:10 270 4 gusting 5 18.3
2014-Dec-19 10:05 202 2 gusting 3 17.8
2014-Dec-19 10:00 292 3 gusting 4 17.8
2014-Dec-19 09:55 270 2 gusting 4 18.3
2014-Dec-19 09:50 180 2 gusting 3 17.8
2014-Dec-19 09:45 225 3 gusting 5 17.8
2014-Dec-19 09:40 202 3 gusting 4 18.3
2014-Dec-19 09:35 225 3 gusting 4 18.3
2014-Dec-19 09:30 225 1 gusting 2 17.8
2014-Dec-19 09:25 247 2 gusting 3 17.8
2014-Dec-19 09:20 225 2 gusting 4 18.3
2014-Dec-19 09:15 202 2 gusting 3 17.8
2014-Dec-19 09:10 180 1 gusting 2 17.8
2014-Dec-19 09:03 225 2 gusting 3 17.2
2014-Dec-19 09:00 202 2 gusting 4 17.8
2014-Dec-19 08:55 225 2 gusting 3 17.8
2014-Dec-19 08:50 180 1 gusting 3 17.8
2014-Dec-19 08:45 157 1 gusting 3 17.8
2014-Dec-19 08:40 225 0 gusting 1 17.2
2014-Dec-19 08:35 225 2 gusting 3 17.8
2014-Dec-19 08:30 180 1 gusting 2 17.8
2014-Dec-19 08:25 180 17.8
2014-Dec-19 08:20 247 0 gusting 1 17.2
2014-Dec-19 08:15 225 17.2
2014-Dec-19 08:10 202 2 gusting 2 17.2
2014-Dec-19 08:05 225 0 gusting 1 17.2
2014-Dec-19 06:27 022 2 gusting 2 10.0
2014-Dec-19 06:25 022 3 gusting 5 10.0
2014-Dec-19 06:20 8.9
2014-Dec-19 06:15 090 0 gusting 1 8.3
2014-Dec-19 06:10 022 3 gusting 5 8.3
2014-Dec-19 06:05 7.8
2014-Dec-19 06:00 022 0 gusting 1 8.3
2014-Dec-19 05:55 067 8.3
2014-Dec-19 05:50 292 2 gusting 4 8.3
2014-Dec-19 05:45 022 6 gusting 10 8.3
2014-Dec-19 05:40 135 3 gusting 4 8.3
2014-Dec-19 05:35 045 3 gusting 5 8.3
2014-Dec-19 05:30 022 1 gusting 2 7.8
2014-Dec-19 05:25 045 2 gusting 4 7.8
2014-Dec-19 05:20 022 2 gusting 4 7.8
2014-Dec-19 05:15 7.8
2014-Dec-19 05:10 045 0 gusting 1 7.8
2014-Dec-19 05:05 067 1 gusting 3 7.2
2014-Dec-19 05:00 022 1 gusting 2 7.2
2014-Dec-19 04:55 045 0 gusting 1 7.2
2014-Dec-19 04:50 045 1 gusting 2 7.8
2014-Dec-19 04:45 045 2 gusting 3 7.8
2014-Dec-19 04:40 022 1 gusting 2 7.8
2014-Dec-19 04:35 022 2 gusting 2 7.8
2014-Dec-19 04:30 045 1 gusting 2 7.8
2014-Dec-19 04:25 045 2 gusting 3 7.8
2014-Dec-19 04:20 045 1 gusting 2 7.8
2014-Dec-19 04:15 067 2 gusting 5 7.8
2014-Dec-19 04:10 045 2 gusting 4 7.8
2014-Dec-19 04:05 225 0 gusting 1 7.8
2014-Dec-19 04:00 045 3 gusting 6 7.8
2014-Dec-19 03:55 7.8
2014-Dec-19 03:50 045 2 gusting 4 7.8
2014-Dec-19 03:45 067 3 gusting 5 7.8
2014-Dec-19 03:40 7.8
2014-Dec-19 03:35 045 1 gusting 3 7.8
2014-Dec-19 03:30 045 2 gusting 4 7.8
2014-Dec-19 03:25 090 1 gusting 3 7.8
2014-Dec-19 03:20 067 0 gusting 2 7.8
2014-Dec-19 03:15 067 1 gusting 2 7.8
2014-Dec-19 03:10 337 2 gusting 3 7.8
2014-Dec-19 03:05 067 1 gusting 4 7.8
2014-Dec-19 03:00 090 3 gusting 5 7.8
2014-Dec-19 02:55 045 2 gusting 6 7.8
2014-Dec-19 02:50 090 3 gusting 5 7.8
2014-Dec-19 02:45 045 3 gusting 6 7.8
2014-Dec-19 02:40 090 1 gusting 2 7.8
2014-Dec-19 02:35 045 0 gusting 0 7.8
2014-Dec-19 02:30 067 7.8
2014-Dec-19 02:25 090 7.8
2014-Dec-19 02:20 045 0 gusting 1 7.8
2014-Dec-19 02:15 045 7.8
2014-Dec-19 02:10 045 1 gusting 2 7.8
2014-Dec-19 02:05 022 1 gusting 2 7.8
2014-Dec-19 02:00 7.8
2014-Dec-19 01:55 8.3
2014-Dec-19 01:50 8.3
2014-Dec-19 01:45 8.3
2014-Dec-19 01:40 8.3
2014-Dec-19 01:35 045 2 gusting 4 8.3
2014-Dec-19 01:30 8.3
2014-Dec-19 01:25 337 3 gusting 5 8.3
2014-Dec-19 01:20 8.3
2014-Dec-19 01:15 022 4 gusting 6 8.3
2014-Dec-19 01:10 045 2 gusting 3 7.8
2014-Dec-19 01:05 045 4 gusting 6 7.8
2014-Dec-19 01:00 067 3 gusting 6 7.8
2014-Dec-19 00:55 045 2 gusting 4 7.2
2014-Dec-19 00:50 090 1 gusting 2 7.2
2014-Dec-19 00:45 022 2 gusting 4 7.2
2014-Dec-19 00:40 6.7
2014-Dec-19 00:35 247 2 gusting 3 6.7
2014-Dec-19 00:30 045 0 gusting 1 6.1
2014-Dec-19 00:25 090 1 gusting 1 6.1
2014-Dec-19 00:20 067 0 gusting 0 6.1
2014-Dec-19 00:15 067 6.1
2014-Dec-19 00:10 067 0 gusting 1 6.1
2014-Dec-19 00:05 090 0 gusting 1 6.7
2014-Dec-19 00:00 090 1 gusting 2 6.7
2014-Dec-18 23:55 090 0 gusting 1 7.2
2014-Dec-18 23:50 090 1 gusting 1 7.2
2014-Dec-18 23:45 045 0 gusting 1 6.7
2014-Dec-18 23:40 067 0 gusting 0 6.7
2014-Dec-18 23:35 022 0 gusting 1 6.7
2014-Dec-18 23:30 045 1 gusting 3 6.7
2014-Dec-18 23:25 7.2
2014-Dec-18 23:20 067 1 gusting 2 7.2
2014-Dec-18 23:15 022 0 gusting 1 6.7
2014-Dec-18 23:10 045 1 gusting 1 6.7
2014-Dec-18 23:05 045 0 gusting 1 7.2
2014-Dec-18 23:00 045 0 gusting 1 6.7
2014-Dec-18 22:55 045 1 gusting 2 6.7
2014-Dec-18 22:50 045 1 gusting 1 6.7
2014-Dec-18 22:45 022 1 gusting 3 6.1
2014-Dec-18 22:40 022 1 gusting 2 6.1
2014-Dec-18 22:35 067 0 gusting 1 5.6
2014-Dec-18 22:30 090 0 gusting 1 5.6
2014-Dec-18 22:25 090 0 gusting 1 6.1
2014-Dec-18 22:20 112 1 gusting 1 6.1
2014-Dec-18 22:15 090 1 gusting 2 6.1
2014-Dec-18 22:10 067 3 gusting 4 6.1
2014-Dec-18 22:05 090 3 gusting 5 6.1
2014-Dec-18 22:00 090 1 gusting 1 5.6
2014-Dec-18 21:55 045 0 gusting 1 5.6
2014-Dec-18 21:50 5.6
2014-Dec-18 21:45 022 0 gusting 0 5.6
2014-Dec-18 21:40 067 0 gusting 1 5.6
2014-Dec-18 21:35 090 0 gusting 1 5.6
2014-Dec-18 21:30 022 0 gusting 2 5.6
2014-Dec-18 21:25 067 1 gusting 2 5.6
2014-Dec-18 21:20 067 5.6
2014-Dec-18 21:15 090 5.6
2014-Dec-18 21:10 022 6.1
2014-Dec-18 21:05 090 1 gusting 2 6.1
2014-Dec-18 21:00 067 0 gusting 2 5.6
2014-Dec-18 20:55 090 0 gusting 0 6.1
2014-Dec-18 20:50 067 0 gusting 1 6.1
2014-Dec-18 20:45 090 0 gusting 2 6.1
2014-Dec-18 20:40 112 1 gusting 2 6.1
2014-Dec-18 20:35 090 0 gusting 0 6.1
2014-Dec-18 20:30 067 0 gusting 1 6.1
2014-Dec-18 20:25 067 1 gusting 2 6.1
2014-Dec-18 20:20 090 1 gusting 2 6.1
2014-Dec-18 20:15 090 2 gusting 4 6.1
2014-Dec-18 20:10 090 1 gusting 2 6.1
2014-Dec-18 20:05 090 1 gusting 1 6.1
2014-Dec-18 20:00 090 1 gusting 2 6.1
2014-Dec-18 19:55 090 0 gusting 2 6.1
2014-Dec-18 19:50 067 6.1
2014-Dec-18 19:45 067 1 gusting 2 6.1
2014-Dec-18 19:40 090 1 gusting 2 6.1
2014-Dec-18 19:35 090 2 gusting 2 6.1
2014-Dec-18 19:30 090 0 gusting 0 6.1
2014-Dec-18 19:25 067 0 gusting 1 6.1
2014-Dec-18 19:20 045 1 gusting 1 6.1
2014-Dec-18 19:15 090 1 gusting 2 6.1
2014-Dec-18 19:10 090 0 gusting 1 6.1
2014-Dec-18 19:05 090 1 gusting 1 6.1
2014-Dec-18 19:00 067 0 gusting 1 6.1
2014-Dec-18 18:55 067 0 gusting 1 6.1
2014-Dec-18 18:50 090 0 gusting 0 6.1
2014-Dec-18 18:45 045 0 gusting 1 6.1
2014-Dec-18 18:40 045 6.7
2014-Dec-18 18:35 112 0 gusting 1 6.7
2014-Dec-18 18:30 090 1 gusting 3 6.7
2014-Dec-18 18:25 067 0 gusting 2 6.7
2014-Dec-18 18:20 090 1 gusting 3 6.7
2014-Dec-18 18:15 090 0 gusting 1 6.7
2014-Dec-18 18:10 090 0 gusting 1 6.7
2014-Dec-18 18:05 090 1 gusting 3 6.7
2014-Dec-18 18:00 090 2 gusting 3 6.7
2014-Dec-18 17:55 090 1 gusting 1 6.7
2014-Dec-18 17:50 090 1 gusting 2 6.7
2014-Dec-18 17:45 090 6.7
2014-Dec-18 17:40 112 6.7
2014-Dec-18 17:35 090 0 gusting 1 6.7
2014-Dec-18 17:30 045 1 gusting 2 7.2
2014-Dec-18 17:25 090 0 gusting 1 7.2
2014-Dec-18 17:20 045 7.2
2014-Dec-18 17:15 112 0 gusting 1 7.2
2014-Dec-18 17:10 067 7.2
2014-Dec-18 17:05 067 0 gusting 0 7.8
2014-Dec-18 17:00 067 0 gusting 0 7.8
2014-Dec-18 16:55 090 1 gusting 2 7.8
2014-Dec-18 16:50 090 0 gusting 1 7.8
2014-Dec-18 16:45 067 8.3
2014-Dec-18 16:40 067 8.3
2014-Dec-18 16:35 067 8.3
2014-Dec-18 16:30 090 1 gusting 1 8.9
2014-Dec-18 16:25 112 3 gusting 3 8.9
2014-Dec-18 16:20 112 1 gusting 2 8.9
2014-Dec-18 16:15 090 2 gusting 3 9.4
2014-Dec-18 16:10 090 1 gusting 1 9.4
2014-Dec-18 16:05 090 1 gusting 1 9.4
2014-Dec-18 16:00 135 0 gusting 1 9.4
2014-Dec-18 15:55 112 1 gusting 1 9.4
2014-Dec-18 15:50 090 9.4
2014-Dec-18 15:45 090 0 gusting 1 10.0
2014-Dec-18 15:40 090 10.0
2014-Dec-18 15:35 067 10.0
2014-Dec-18 15:30 045 10.6
2014-Dec-18 15:25 202 11.1
2014-Dec-18 15:20 202 11.1
2014-Dec-18 15:15 202 11.7
2014-Dec-18 15:10 202 12.2
2014-Dec-18 15:05 202 12.8
2014-Dec-18 15:00 225 12.8
2014-Dec-18 14:55 225 13.3
2014-Dec-18 14:50 225 13.3
2014-Dec-18 14:45 270 13.3
2014-Dec-18 14:40 315 13.9
2014-Dec-18 14:35 337 0 gusting 1 14.4
2014-Dec-18 14:30 15.6
2014-Dec-18 14:25 15.6
2014-Dec-18 14:20 112 15.0
2014-Dec-18 14:15 067 14.4
2014-Dec-18 14:10 247 0 gusting 1 14.4
2014-Dec-18 14:05 247 2 gusting 3 14.4
2014-Dec-18 14:00 247 0 gusting 1 14.4
2014-Dec-18 13:55 270 0 gusting 1 14.4
2014-Dec-18 13:50 270 14.4
2014-Dec-18 13:45 315 1 gusting 1 13.9
2014-Dec-18 13:40 022 1 gusting 2 12.8
2014-Dec-18 13:35 022 1 gusting 2 12.2
2014-Dec-18 13:30 022 0 gusting 1 11.7
2014-Dec-18 13:25 067 0 gusting 1 11.1
2014-Dec-18 13:20 045 1 gusting 3 10.6
2014-Dec-18 13:15 045 1 gusting 2 10.6
2014-Dec-18 13:10 11.1
2014-Dec-18 13:05 11.1
2014-Dec-18 13:00 315 0 gusting 1 11.1